Home > Products > Valid Products > TAF

000
FTUS43 KSGF 010500
TAFSGF
TAF
KSGF 010520Z 0106/0206 16012G22KT P6SM SCT100 BKN200 WS020/21040KT
     FM011100 17015G25KT P6SM VCTS SCT040CB BKN200 PROB30 0115/0117
      5SM -TSRA BR BKN040CB
     FM011700 20015G25KT P6SM SCT100 BKN250
     FM012300 18010KT P6SM VCTS SCT040CB BKN100
      TEMPO 0123/0203 5SM -TSRA BR OVC040CB=



000
FTUS43 KSGF 010500
TAFJLN
TAF
KJLN 010520Z 0106/0206 18018G22KT P6SM SKC WS020/20045KT
     FM011000 19015G25KT P6SM VCTS SCT050CB
     FM011400 20018G28KT P6SM BKN200
     FM012200 18010KT P6SM VCTS SCT040CB BKN100
      TEMPO 0122/0202 5SM -TSRA BR OVC040CB=



000
FTUS43 KSGF 312300
TAFJLN
TAF
KJLN 312322Z 0100/0124 18015G22KT P6SM SKC
     FM010500 16012G22KT P6SM SCT080 BKN200 WS020/19045KT
     FM010700 19015G25KT P6SM VCTS SCT050CB
      TEMPO 0107/0111 5SM -TSRA BR OVC040CB
     FM011400 20018G28KT P6SM BKN200=



000
FTUS43 KSGF 312300
TAFSGF
TAF
KSGF 312322Z 0100/0124 17012KT P6SM SKC
     FM010600 16012KT P6SM SCT100 BKN200 WS020/21040KT
     FM010800 17015G25KT P6SM VCTS SCT040CB BKN200
      TEMPO 0108/0112 5SM -TSRA BR OVC040CB
     FM011400 19015G25KT P6SM SCT100 BKN250=



000
FTUS43 KSGF 312200 AAA
TAFJLN
TAF AMD
KJLN 312241Z 3123/0118 18015G22KT P6SM SKC
     FM010100 17012KT P6SM SKC
     FM010500 16012G22KT P6SM SCT080 BKN200 WS020/19045KT
     FM011200 20015G25KT P6SM BKN200=



000
FTUS43 KSGF 311700
TAFJLN
TAF
KJLN 311720Z 3118/0118 21008KT P6SM SKC
     FM010100 17012KT P6SM SKC
     FM010500 16012G22KT P6SM SCT080 BKN200 WS020/19045KT
     FM011200 20015G25KT P6SM BKN200=



000
FTUS43 KSGF 311700
TAFSGF
TAF
KSGF 311720Z 3118/0118 VRB04KT P6SM FEW035
     FM312300 16014KT P6SM SKC
     FM010600 16012KT P6SM SCT100 BKN200 WS020/19040KT
     FM011200 17010G20KT P6SM BKN200=



000
FTUS43 KSGF 311200 AAA
TAFSGF
TAF AMD
KSGF 311245Z 3113/0112 17007KT 5SM BR SCT002
      TEMPO 3113/3114 1SM BR BKN002
     FM311400 19010KT P6SM SKC
     FM010100 16012KT P6SM SKC
     FM010700 16013KT P6SM SCT100 BKN200 WS020/19040KT=



000
FTUS43 KSGF 311100 CCA
TAFSGF
TAF COR
KSGF 311143Z 3112/0112 16007KT 1SM BR BKN002
      TEMPO 3112/3114 1/2SM FG VV002
     FM311400 19010KT P6SM SKC
     FM010100 16012KT P6SM SKC
     FM010700 16013KT P6SM SCT100 BKN200 WS020/19040KT=



000
FTUS43 KSGF 311100
TAFJLN
TAF
KJLN 311120Z 3112/0112 19008KT P6SM SKC
     FM311400 20012KT P6SM SKC
     FM010100 17013KT P6SM SKC
     FM010600 16014G22KT P6SM SCT080 BKN200 WS020/19045KT=



000
FTUS43 KSGF 311100
TAFSGF
TAF
KSGF 311120Z 3112/0112 16009KT P6SM SCT007
      TEMPO 3112/3114 BKN007
     FM311400 19010KT P6SM SKC
     FM010100 16012KT P6SM SKC
     FM010700 16013KT P6SM SCT100 BKN200 WS020/19040KT=



000
FTUS43 KSGF 310500
TAFJLN
TAF
KJLN 310520Z 3106/0106 16006KT P6SM SKC
     FM311800 19015G22KT P6SM SKC=



000
FTUS43 KSGF 310500
TAFSGF
TAF
KSGF 310520Z 3106/0106 16009KT P6SM SKC
     FM311000 19008KT 5SM BR SKC
     FM311400 19010KT P6SM SKC=



000
FTUS43 KSGF 302300
TAFSGF
TAF
KSGF 302320Z 3100/3124 13008KT P6SM SCT040 BKN070
     FM310300 VRB04KT P6SM SKC
     FM311000 19008KT 5SM BR SKC
     FM311400 19010KT P6SM SKC=



000
FTUS43 KSGF 302300
TAFJLN
TAF
KJLN 302320Z 3100/3124 16005KT P6SM SKC
     FM310600 19005KT P6SM SCT080 SCT250
     FM311800 19015G22KT P6SM SKC=



000
FTUS43 KSGF 302300 AAD
TAFSGF
TAF AMD
KSGF 302306Z 3023/3118 15012KT 6SM -SHRA SCT025 BKN070
     FM310000 16005KT P6SM SCT080
     FM311300 19008KT 6SM BR SKC
     FM311600 19010KT P6SM SKC=



000
FTUS43 KSGF 302200 AAC
TAFSGF
TAF AMD
KSGF 302213Z 3022/3118 32010G20KT 3SM -TSRA BR SCT030CB OVC040
      TEMPO 3022/3023 1SM -TSRA BR OVC030CB
     FM310000 16005KT P6SM SCT080
     FM311300 19008KT 6SM BR SKC
     FM311600 19010KT P6SM SKC=



000
FTUS43 KSGF 302100 AAB
TAFSGF
TAF AMD
KSGF 302136Z 3022/3118 32010KT P6SM VCTS SCT030CB SCT050
     FM302200 32010KT 5SM -TSRA BR SCT030CB OVC040
      TEMPO 3022/3023 2SM -TSRA BR OVC030CB
     FM310000 16005KT P6SM SCT080
     FM311300 19008KT 6SM BR SKC
     FM311600 19010KT P6SM SKC=



000
FTUS43 KSGF 302100 AAA
TAFSGF
TAF AMD
KSGF 302112Z 3021/3118 19008KT P6SM VCTS SCT030CB SCT050
      TEMPO 3021/3023 3SM -TSRA BR OVC030CB
     FM310200 16005KT P6SM SCT080
     FM311300 19008KT 6SM BR SKC
     FM311600 19010KT P6SM SKC=



000
FTUS43 KSGF 301900 AAA
TAFSGF
TAF AMD
KSGF 301932Z 3020/3118 19008KT P6SM VCTS SCT030CB SCT050
     FM310200 16005KT P6SM SCT080
     FM311300 19008KT 6SM BR SKC
     FM311600 19010KT P6SM SKC=



000
FTUS43 KSGF 301900 AAA
TAFJLN
TAF AMD
KJLN 301932Z 3020/3118 32006KT P6SM BKN040 BKN070
     FM302200 18008KT P6SM VCSH SCT050
     FM310200 19005KT P6SM SCT080 SCT250=



000
FTUS43 KSGF 301700
TAFJLN
TAF
KJLN 301721Z 3018/3118 21007KT P6SM BKN030 BKN040
     FM302200 18008KT P6SM VCSH SCT050
     FM310200 19005KT P6SM SCT080 SCT250=



000
FTUS43 KSGF 301700
TAFSGF
TAF
KSGF 301721Z 3018/3118 24009KT P6SM VCSH FEW030 SCT050
     FM302000 19008KT P6SM VCSH SCT040 SCT080
     FM310200 16005KT P6SM SCT080
     FM311300 19008KT 6SM BR SKC
     FM311600 19010KT P6SM SKC=



000
FTUS43 KSGF 301100
TAFSGF
TAF
KSGF 301122Z 3012/3112 18010KT P6SM VCSH SCT050 BKN100
      TEMPO 3012/3015 5SM -TSRA SCT025 OVC050CB
     FM301500 22008KT P6SM SCT050 SCT120
     FM302200 19008KT P6SM VCSH SCT050
     FM310200 16005KT P6SM SCT080=



000
FTUS43 KSGF 301100
TAFJLN
TAF
KJLN 301122Z 3012/3112 19008KT P6SM SCT050 SCT100
     FM301600 23008KT P6SM SCT050
     FM302200 21008KT P6SM VCSH SCT050
     FM310200 19005KT P6SM SCT080=



000
FTUS43 KSGF 300900 AAA
TAFSGF
TAF AMD
KSGF 300950Z 3010/3106 17010KT P6SM SCT050 BKN120
      TEMPO 3011/3014 5SM -SHRA BKN050
     FM301500 22008KT P6SM SCT050 BKN250
     FM310000 VRB04KT P6SM SKC=



000
FTUS43 KSGF 300800 AAA
TAFJLN
TAF AMD
KJLN 300818Z 3008/3106 19010KT P6SM VCSH SCT050 BKN080
     FM301400 24008KT P6SM SCT040
     FM310100 VRB04KT P6SM SKC=



000
FTUS43 KSGF 300500
TAFJLN
TAF
KJLN 300520Z 3006/3106 19010KT P6SM SCT200
     FM301600 24008KT P6SM SCT040
     FM310100 VRB04KT P6SM SKC=



000
FTUS43 KSGF 300500
TAFSGF
TAF
KSGF 300520Z 3006/3106 17010KT P6SM SCT200
     FM301500 22008KT P6SM SCT050 BKN250
     FM310000 VRB04KT P6SM SKC=



000
FTUS43 KSGF 292300
TAFJLN
TAF
KJLN 292320Z 3000/3024 21011KT P6SM VCSH SCT060
     FM300300 24008KT P6SM SCT200
     FM301000 20006KT P6SM SCT040 BKN100 PROB30 3010/3016 -TSRA
      SCT040 BKN050CB=



000
FTUS43 KSGF 292300
TAFSGF
TAF
KSGF 292320Z 3000/3024 26005KT P6SM SCT100
     FM300300 22008KT P6SM SCT200
     FM301200 21006KT P6SM SCT050 BKN100 PROB30 3012/3018 -TSRA
      SCT040 BKN050CB=



000
FTUS43 KSGF 292200 AAB
TAFSGF
TAF AMD
KSGF 292227Z 2922/3018 26010KT P6SM VCSH BKN070
     FM300000 21008KT P6SM SCT060
     FM300500 20008KT P6SM VCSH SCT050
     FM301200 21006KT P6SM SCT050 BKN100 PROB30 3012/3018 -TSRA
      SCT040 BKN050CB=



000
FTUS43 KSGF 292100 AAA
TAFSGF
TAF AMD
KSGF 292118Z 2921/3018 24010KT P6SM FEW035 BKN060
     FM300200 19008KT P6SM SCT060
     FM301200 21006KT P6SM SCT050 BKN100 PROB30 3012/3018 -TSRA
      SCT040 BKN050CB=



000
FTUS43 KSGF 291800 AAA
TAFSGF
TAF AMD
KSGF 291858Z 2919/3018 19010KT P6SM SCT035 BKN120
     FM301200 21006KT P6SM SCT050 BKN100 PROB30 3012/3018 -TSRA
      SCT040 BKN050CB=



000
FTUS43 KSGF 291700
TAFJLN
TAF
KJLN 291720Z 2918/3018 21010KT P6SM SCT030 BKN100
     FM300000 18008KT P6SM BKN150
     FM301000 20006KT P6SM SCT040 BKN100=



000
FTUS43 KSGF 291700
TAFSGF
TAF
KSGF 291720Z 2918/3018 19010KT P6SM SCT060 BKN100
      TEMPO 2918/2922 -TSRA SCT030 BKN050CB
     FM292200 17008KT P6SM SCT035 BKN120
     FM301200 21006KT P6SM SCT050 BKN100 PROB30 3012/3018 -TSRA
      SCT040 BKN050CB=



000
FTUS43 KSGF 291500 AAA
TAFSGF
TAF AMD
KSGF 291521Z 2915/3012 19010KT P6SM SCT060 BKN100
      TEMPO 2919/2923 -SHRA SCT035 BKN060
     FM292300 18010KT P6SM VCSH BKN050=



000
FTUS43 KSGF 291500 AAA
TAFJLN
TAF AMD
KJLN 291520Z 2915/3012 20010KT P6SM SCT035 BKN070 OVC090
      TEMPO 2915/2919 -SHRA SCT035 OVC070
     FM292000 19010KT P6SM VCTS BKN040CB OVC080
     FM301000 18008KT P6SM VCSH SCT030 BKN070=



000
FTUS43 KSGF 291100
TAFJLN
TAF
KJLN 291135Z 2912/3012 19005KT P6SM VCSH SCT050 BKN080
     FM291400 20011KT 6SM -SHRA SCT035 OVC070
      TEMPO 2915/2919 -TSRA BKN035CB
     FM292000 19010KT P6SM -SHRA VCTS BKN040CB OVC080
     FM301000 18008KT P6SM VCSH SCT030 BKN070=



000
FTUS43 KSGF 291100
TAFSGF
TAF
KSGF 291135Z 2912/3012 15008KT P6SM SCT090
     FM291400 19010KT P6SM VCSH SCT060 BKN090
      TEMPO 2916/2920 -TSRA SCT035CB OVC060
     FM292000 18011KT P6SM -SHRA VCTS BKN050CB
     FM301000 17008KT P6SM VCSH SCT030 BKN090=



    US Dept of Commerce
    National Oceanic and Atmospheric Administration
    National Weather Service
    1325 East West Highway
    Silver Spring, MD 20910
    Page Author: NWS Internet Services Team
Disclaimer
Information Quality
Credits
Glossary
Privacy Policy
Freedom of Information Act (FOIA)
About Us
Career Opportunities